Megan T Miller — WCW9003 — position and weather

sailwx.info

Track history (hours):
 
Tides and Currents Weather Stations Pressure Air Temp Water Temp Dewpoint Dewpoint Depression Visibility Wind Speed Wind Dir Waves Ship Positions

Megan T Miller

Owner: MILLER MARINE SERVICES INC, PORT JEFFERSON, NY. More information available from US FCC via Universal Licensing System and Coast Guard Vessel Documentation Center.

Last reported at 2017-Oct-15 01:55 UTC. Time now 2017-Oct-20 20:02 UTC.
Position N 40°49' W 073°47'.

Length 18 m; draft 3 m.

MMSI: 338104509.

Date/timePositionNaut miles runAvg speedWind from/ knotsBaromVisibWave heightAir tempDewpointWater temp
2017-Oct-15 01:55N 40°49' W 073°47'3 7.4
2017-Oct-15 01:30N 40°48' W 073°51'4 7.3
2017-Oct-15 01:00N 40°47' W 073°55'3 5.3
2017-Oct-15 00:30N 40°45' W 073°58'3 6.2
2017-Oct-15 00:00N 40°42' W 073°59'4 7.5
2017-Oct-14 23:30N 40°40' W 074°03'3 4.4
2017-Oct-14 22:52N 40°39' W 074°07'0 0.0
2017-Oct-14 22:30N 40°39' W 074°07'0 0.0
2017-Oct-14 21:43N 40°39' W 074°07'1 4.9
2017-Oct-14 21:30N 40°39' W 074°05'4 8.9
2017-Oct-14 21:00N 40°35' W 074°02'10 4.4
2017-Oct-14 18:40N 40°25' W 074°01'3 8.4
2017-Oct-14 18:16N 40°29' W 074°01'  
2017-Oct-11 22:00N 40°25' W 074°01'0 0.0
2017-Oct-10 23:34N 40°25' W 074°01'1 7.0
2017-Oct-10 23:24N 40°26' W 074°01'9 2.5
2017-Oct-10 19:49N 40°31' W 073°52'7 0.8
2017-Oct-10 11:50N 40°29' W 074°00'2 5.2
2017-Oct-10 11:30N 40°28' W 074°01'1 0.0
2017-Oct-08 13:20N 40°28' W 074°01'6 8.3
2017-Oct-08 12:35N 40°30' W 073°54'6 6.1
2017-Oct-08 11:31N 40°28' W 074°01'0 7.4
2017-Oct-08 11:30N 40°28' W 074°01'3 0.3
2017-Oct-08 02:39N 40°25' W 074°02'0 0.0
2017-Oct-08 02:29N 40°25' W 074°02'0 0.0
2017-Oct-08 01:40N 40°25' W 074°02'0 0.0
2017-Oct-08 00:35N 40°25' W 074°02'1 0.2
2017-Oct-07 21:58N 40°25' W 074°01'4 7.7
2017-Oct-07 21:30N 40°29' W 074°01'5 8.1
2017-Oct-07 20:53N 40°30' W 073°55'2 0.3
2017-Oct-07 12:32N 40°31' W 073°52'0 8.4
2017-Oct-07 12:29N 40°31' W 073°53'5 8.0
2017-Oct-07 11:51N 40°29' W 073°59'2 7.0
2017-Oct-07 11:30N 40°28' W 074°01'3 0.2
2017-Oct-06 22:13N 40°25' W 074°02'1 4.7
2017-Oct-06 21:55N 40°26' W 074°01'3 7.4
2017-Oct-06 21:29N 40°29' W 073°59'6 0.7
2017-Oct-06 12:32N 40°31' W 073°52'2 8.3
2017-Oct-06 12:16N 40°31' W 073°55'3 8.1
2017-Oct-06 11:50N 40°29' W 073°59'3 6.9
2017-Oct-06 11:28N 40°28' W 074°01'3 5.2
2017-Oct-06 10:55N 40°25' W 074°02'0 0.0
2017-Oct-06 10:15N 40°25' W 074°02'0 0.0
2017-Oct-06 09:53N 40°25' W 074°02'0 0.0
2017-Oct-06 09:28N 40°25' W 074°02'0 0.0
2017-Oct-05 22:34N 40°25' W 074°01'1 6.5
2017-Oct-05 22:24N 40°26' W 074°01'3 7.4
2017-Oct-05 21:57N 40°29' W 073°60'6 0.7
2017-Oct-05 12:58N 40°31' W 073°52'1 3.0
2017-Oct-05 12:30N 40°31' W 073°53'5 8.5
2017-Oct-05 11:55N 40°29' W 073°59'3 6.2
2017-Oct-05 11:30N 40°27' W 074°01'2 4.1
2017-Oct-05 11:00N 40°25' W 074°02'0 0.0
2017-Oct-05 09:48N 40°25' W 074°02'0 0.0
2017-Oct-05 02:36N 40°25' W 074°02'  
Track history (hours):
 
Tides and Currents Weather Stations Pressure Air Temp Water Temp Dewpoint Dewpoint Depression Visibility Wind Speed Wind Dir Waves Ship Positions

Megan T Miller

Owner: MILLER MARINE SERVICES INC, PORT JEFFERSON, NY. More information available from US FCC via Universal Licensing System and Coast Guard Vessel Documentation Center.

Last reported at 2017-Oct-15 01:55 UTC. Time now 2017-Oct-20 20:02 UTC.
Position N 40°49' W 073°47'.

Length 18 m; draft 3 m.

MMSI: 338104509.

Date/timePositionNaut miles runAvg speedWind from/ knotsBaromVisibWave heightAir tempDewpointWater temp
2017-Oct-15 01:55N 40°49' W 073°47'3 7.4
2017-Oct-15 01:30N 40°48' W 073°51'4 7.3
2017-Oct-15 01:00N 40°47' W 073°55'3 5.3
2017-Oct-15 00:30N 40°45' W 073°58'3 6.2
2017-Oct-15 00:00N 40°42' W 073°59'4 7.5
2017-Oct-14 23:30N 40°40' W 074°03'3 4.4
2017-Oct-14 22:52N 40°39' W 074°07'0 0.0
2017-Oct-14 22:30N 40°39' W 074°07'0 0.0
2017-Oct-14 21:43N 40°39' W 074°07'1 4.9
2017-Oct-14 21:30N 40°39' W 074°05'4 8.9
2017-Oct-14 21:00N 40°35' W 074°02'10 4.4
2017-Oct-14 18:40N 40°25' W 074°01'3 8.4
2017-Oct-14 18:16N 40°29' W 074°01'  
2017-Oct-11 22:00N 40°25' W 074°01'0 0.0
2017-Oct-10 23:34N 40°25' W 074°01'1 7.0
2017-Oct-10 23:24N 40°26' W 074°01'9 2.5
2017-Oct-10 19:49N 40°31' W 073°52'7 0.8
2017-Oct-10 11:50N 40°29' W 074°00'2 5.2
2017-Oct-10 11:30N 40°28' W 074°01'1 0.0
2017-Oct-08 13:20N 40°28' W 074°01'6 8.3
2017-Oct-08 12:35N 40°30' W 073°54'6 6.1
2017-Oct-08 11:31N 40°28' W 074°01'0 7.4
2017-Oct-08 11:30N 40°28' W 074°01'3 0.3
2017-Oct-08 02:39N 40°25' W 074°02'0 0.0
2017-Oct-08 02:29N 40°25' W 074°02'0 0.0
2017-Oct-08 01:40N 40°25' W 074°02'0 0.0
2017-Oct-08 00:35N 40°25' W 074°02'1 0.2
2017-Oct-07 21:58N 40°25' W 074°01'4 7.7
2017-Oct-07 21:30N 40°29' W 074°01'5 8.1
2017-Oct-07 20:53N 40°30' W 073°55'2 0.3
2017-Oct-07 12:32N 40°31' W 073°52'0 8.4
2017-Oct-07 12:29N 40°31' W 073°53'5 8.0
2017-Oct-07 11:51N 40°29' W 073°59'2 7.0
2017-Oct-07 11:30N 40°28' W 074°01'3 0.2
2017-Oct-06 22:13N 40°25' W 074°02'1 4.7
2017-Oct-06 21:55N 40°26' W 074°01'3 7.4
2017-Oct-06 21:29N 40°29' W 073°59'6 0.7
2017-Oct-06 12:32N 40°31' W 073°52'2 8.3
2017-Oct-06 12:16N 40°31' W 073°55'3 8.1
2017-Oct-06 11:50N 40°29' W 073°59'3 6.9
2017-Oct-06 11:28N 40°28' W 074°01'3 5.2
2017-Oct-06 10:55N 40°25' W 074°02'0 0.0
2017-Oct-06 10:15N 40°25' W 074°02'0 0.0
2017-Oct-06 09:53N 40°25' W 074°02'0 0.0
2017-Oct-06 09:28N 40°25' W 074°02'0 0.0
2017-Oct-05 22:34N 40°25' W 074°01'1 6.5
2017-Oct-05 22:24N 40°26' W 074°01'3 7.4
2017-Oct-05 21:57N 40°29' W 073°60'6 0.7
2017-Oct-05 12:58N 40°31' W 073°52'1 3.0
2017-Oct-05 12:30N 40°31' W 073°53'5 8.5
2017-Oct-05 11:55N 40°29' W 073°59'3 6.2
2017-Oct-05 11:30N 40°27' W 074°01'2 4.1
2017-Oct-05 11:00N 40°25' W 074°02'0 0.0
2017-Oct-05 09:48N 40°25' W 074°02'0 0.0
2017-Oct-05 02:36N 40°25' W 074°02'  

Dump ship's entire track history